Aeroporto :
LOGIN :

Iscrizione | Disclaimer

   EN    FR    IT 

 










Sommario :    VFR   VFR Marginale   IFR   IFR Intensivo   IFR Molto Intensivo
Visibilità : 
Base nubi : 
>= 8 km
>= 3000ft
5 / 8 km
1000 / 3000 ft
1500m / 5 km
500 / 1000 ft
800 / 1500m
200 / 500 ft
< 800m
< 200 ft
Simboli :   Temporali  Nebbia  Neve Forte  Precipitazioni Forti  Vento > 20 kt
SIGMETs :   Varie  Temporali  Ghiacco  Turbolenza  Onda orograficha  Ceneri Vulcaniche






- Altitudine del aeroporto : 106 ft
- Codice IATA : NRN


EDLV - Weeze

ULTIMO METAR :
  • 172020Z 23014KT 9999 BKN026 08/05 Q1013

METARs OBSOLETI :
  • 171950Z 23011KT 9000 -SHRA BKN026 07/05 Q1013
  • 171920Z 22010KT 9999 BKN035 07/05 Q1013
  • 171850Z 22010KT 9999 BKN048 07/04 Q1013
  • 171820Z 22012KT 9000 BKN038 07/04 Q1013
  • 171750Z 24015KT 9000 -SHRA BKN044 06/04 Q1013

TAF TAF EDLV
Valido dal 17 a 18 ore il 18 a 18 ore UTC


171700Z 1718/1818 23015G25KT 9999 SCT030
TEMPO 1718/1803 24020G30KT SHRA BKN020CB
TEMPO 1809/1816 23020G30KT SHRA BKN020CB



MetMap, La meteo Aeronautica in un colpo d'occhio ! - Copyright ORBIFLY Dicembre 2007 - Disclaimer

ORBIFLY MET'MAP TEAM :

Programmazione e sviluppo : Alexandra Zaïnal
Concezione : Baudouin d'Aumeries
Aiuto per la programmazione : Marc-Olivier Méhu
Supporto tecnico e logistico : Manuel Goepfert
Aiuto per la traduzione : Arnaldo La Scala

Contatto : metmap@orbifly.com




FONTI E CREDITI :

   NOAA